Flight Track Log - Related Links

Times and Time Zones

All times are in EDT time to prevent confusion due to time zone crossing. See the EJA727 flight status page for this flight to view local times or setup timezone preferences in your user account.

Time Position Orientation Groundspeed Altitude Reporting Facility
EDT Latitude Longitude Course Direction KTS MPH feet Rate Location/Type
Sat 09:20:27 AM 35.6378 -106.0669 114° Southeast 188 216 8,100  Level Albuquerque Center
Sat 09:21:28 AM 35.6331 -105.9961 95° East 212 244 12,100 3,719 Climbing Albuquerque Center
Sat 09:22:28 AM 35.6006 -105.9036 113° Southeast 276 318 15,600 3,421 Climbing Albuquerque Center
Sat 09:23:29 AM 35.5614 -105.7942 114° Southeast 328 377 19,000 3,521 Climbing Albuquerque Center
Sat 09:24:29 AM 35.5208 -105.6767 113° Southeast 361 415 22,700 3,074 Climbing Albuquerque Center
Sat 09:25:00 AM 35.3601 -105.3401 114° Southeast  Level FlightAware Approximate
Sat 09:25:30 AM 35.4783 -105.5536 113° Southeast 381 438 25,200  Level Albuquerque Center
Sat 09:26:31 AM 35.4311 -105.4228 114° Southeast 410 472 27,600 2,132 Climbing Albuquerque Center
Sat 09:27:31 AM 35.3864 -105.2886 112° Southeast 421 484 29,500 1,736 Climbing Albuquerque Center
Sat 09:28:32 AM 35.3383 -105.1483 113° Southeast 438 504 31,100 1,736 Climbing Albuquerque Center
Sat 09:29:32 AM 35.2886 -105.0117 114° Southeast 439 505 33,000 942 Climbing Albuquerque Center
Sat 09:30:33 AM 35.2375 -104.8714 114° Southeast 446 513 33,000  Level Albuquerque Center
Sat 09:31:34 AM 35.1864 -104.7261 113° Southeast 458 527 33,000  Level Albuquerque Center
Sat 09:32:34 AM 35.1372 -104.5886 114° Southeast 446 513 33,000  Level Albuquerque Center
Sat 09:33:35 AM 35.0939 -104.4631 113° Southeast 424 488 33,000  Level Albuquerque Center
Sat 09:34:36 AM 35.0447 -104.3308 114° Southeast 415 478 33,000  Level Albuquerque Center
Sat 09:35:37 AM 34.9994 -104.2044 114° Southeast 410 472 33,000  Level Albuquerque Center
Sat 09:36:37 AM 34.9544 -104.0783 113° Southeast 407 468 33,000  Level Albuquerque Center
Sat 09:37:38 AM 34.9083 -103.9522 114° Southeast 407 468 33,000  Level Albuquerque Center
Sat 09:38:38 AM 34.8544 -103.8036 114° Southeast 408 470 33,000  Level Albuquerque Center
Sat 09:39:39 AM 34.8069 -103.6758 114° Southeast 411 473 33,000  Level Albuquerque Center
Sat 09:40:40 AM 34.7589 -103.5439 114° Southeast 419 482 33,000  Level Albuquerque Center
Sat 09:41:41 AM 34.7086 -103.4075 114° Southeast 435 501 33,000  Level Albuquerque Center
Sat 09:42:41 AM 34.6569 -103.2700 115° Southeast 441 507 33,000  Level Albuquerque Center
Sat 09:43:42 AM 34.6056 -103.1336 115° Southeast 441 507 33,000  Level Albuquerque Center
Sat 09:44:43 AM 34.5542 -102.9975 115° Southeast 441 507 33,000  Level Albuquerque Center
Sat 09:45:44 AM 34.5053 -102.8619 114° Southeast 438 504 33,000  Level Albuquerque Center
Sat 09:46:44 AM 34.4642 -102.7394 112° Southeast 437 503 33,000  Level Albuquerque Center
Sat 09:47:45 AM 34.4506 -102.5981 97° East 432 497 33,000  Level Albuquerque Center
Sat 09:48:46 AM 34.4464 -102.4536 92° East 432 497 33,000  Level Albuquerque Center
Sat 09:49:47 AM 34.4353 -102.3081 95° East 434 499 33,000  Level Albuquerque Center
Sat 09:50:48 AM 34.4194 -102.1317 96° East 439 505 33,000  Level Albuquerque Center
Sat 09:51:49 AM 34.4044 -101.9892 97° East 434 499 33,000  Level Albuquerque Center
Sat 09:52:50 AM 34.3900 -101.8447 97° East 434 499 33,000  Level Albuquerque Center
Sat 09:53:51 AM 34.3750 -101.7022 97° East 432 497 33,000  Level Albuquerque Center
Sat 09:54:49 AM 34.3592 -101.5542 97° East 430 495 33,000  Level Fort Worth Center
Sat 09:55:49 AM 34.3433 -101.4050 97° East 441 507 33,000  Level Fort Worth Center
Sat 09:56:49 AM 34.3247 -101.2608 99° East 441 507 33,000  Level Fort Worth Center
Sat 09:58:49 AM 34.2900 -100.9578 98° East 453 521 33,000  Level Fort Worth Center
Sat 09:59:49 AM 34.2608 -100.8058 103° East 453 521 33,000  Level Fort Worth Center
Sat 10:00:49 AM 34.2253 -100.6461 105° East 459 528 33,000  Level Fort Worth Center
Sat 10:01:49 AM 34.1875 -100.4942 107° East 471 542 33,000  Level Fort Worth Center
Sat 10:02:49 AM 34.1575 -100.3525 104° East 479 551 33,000 -350 Level Fort Worth Center
Sat 10:03:49 AM 34.1172 -100.1981 107° East 479 551 32,300 -1,000 Descending Fort Worth Center
Sat 10:04:49 AM 34.0811 -100.0364 105° East 484 557 31,000 -650 Descending Fort Worth Center
Sat 10:05:49 AM 34.0408 -99.8622 106° East 484 557 31,000  Level Fort Worth Center
Sat 10:06:49 AM 34.0022 -99.7008 106° East 484 557 31,000  Level Fort Worth Center
Sat 10:07:49 AM 33.9631 -99.5447 107° East 484 557 31,000  Level Fort Worth Center
Sat 10:08:49 AM 33.9261 -99.3833 105° East 489 563 31,000  Level Fort Worth Center
Sat 10:09:49 AM 33.8867 -99.2250 107° East 489 563 31,000  Level Fort Worth Center
Sat 10:10:49 AM 33.8494 -99.0667 106° East 494 568 31,000  Level Fort Worth Center
Sat 10:11:49 AM 33.8114 -98.9258 108° East 494 568 31,000  Level Fort Worth Center
Sat 10:12:49 AM 33.7717 -98.7678 107° East 494 568 31,000 -347 Level Fort Worth Center
Sat 10:13:50 AM 33.7169 -98.6072 112° Southeast 483 556 30,300 -1,550 Descending Fort Worth Center
Sat 10:14:49 AM 33.6661 -98.4592 112° Southeast 471 542 27,900 -2,471 Descending Fort Worth Center
Sat 10:15:49 AM 33.6211 -98.3214 111° Southeast 476 548 25,400 -2,500 Descending Fort Worth Center
Sat 10:16:49 AM 33.5678 -98.1714 113° Southeast 476 548 22,900 -2,479 Descending Fort Worth Center
Sat 10:17:50 AM 33.5164 -98.0239 113° Southeast 476 548 20,400 -2,450 Descending Fort Worth Center
Sat 10:18:49 AM 33.4650 -97.8817 113° Southeast 450 518 18,000 -2,218 Descending Fort Worth Center
Sat 10:19:49 AM 33.4256 -97.7694 113° Southeast 409 471 16,000 -1,884 Descending Fort Worth Center
Sat 10:20:50 AM 33.3925 -97.6697 112° Southeast 376 433 14,200 -2,050 Descending Fort Worth Center
Sat 10:21:49 AM 33.3114 -97.5575 131° Southeast 370 426 11,900 -1,613 Descending Fort Worth Center
Sat 10:22:49 AM 33.2444 -97.4781 135° Southeast 370 426 11,000 -446 Descending Fort Worth Center
Sat 10:23:50 AM 33.1631 -97.3836 136° Southeast 376 433 11,000  Level Fort Worth Center
Sat 10:24:49 AM 33.0942 -97.3044 136° Southeast 376 433 11,000  Level Fort Worth Center
Sat 10:25:49 AM 33.0169 -97.2153 136° Southeast 362 417 11,000  Level Fort Worth Center
Sat 10:26:49 AM 32.9625 -97.1486 134° Southeast 325 374 11,000 -1,450 Level Fort Worth Center
Sat 10:27:49 AM 32.8975 -97.0744 136° Southeast 304 350 8,100 -2,625 Descending Fort Worth Center
Sat 10:28:41 AM 32.8500 -97.0000 127° Southeast 286 329 6,100 -1,755 Descending Dallas / Fort Worth TRACON
Sat 10:29:35 AM 32.8167 -96.9333 121° Southeast 279 321 5,000 -600 Descending Dallas / Fort Worth TRACON
Sat 10:30:41 AM 32.7667 -96.8667 132° Southeast 259 298 4,900 -455 Descending Dallas / Fort Worth TRACON
Sat 10:31:47 AM 32.7167 -96.8000 132° Southeast 224 258 4,000 -474 Descending Dallas / Fort Worth TRACON
Sat 10:32:35 AM 32.6833 -96.7667 140° Southeast 198 228 4,000  Level Dallas / Fort Worth TRACON
Sat 10:33:35 AM 32.6333 -96.7167 140° Southeast 190 219 4,000 -500 Level Dallas / Fort Worth TRACON
Sat 10:34:35 AM 32.6333 -96.6667 90° East 188 216 3,000 -500 Descending Dallas / Fort Worth TRACON
Sat 10:35:35 AM 32.6833 -96.6667 360° North 161 185 3,000  Level Dallas / Fort Worth TRACON
Sat 10:36:35 AM 32.7167 -96.7000 320° Northwest 159 183 3,000  Level Dallas / Fort Worth TRACON

Login

Don't have an account? Register now (free) for customized features, flight alerts, and more!